sensor_id;sensor_type;location;lat;lon;timestamp;P1;durP1;ratioP1;P2;durP2;ratioP2
21038;SDS011;10678;51.002;4.786;2022-12-07T00:03:41;17.33;;;9.87;;
21038;SDS011;10678;51.002;4.786;2022-12-07T00:06:08;17.27;;;9.70;;
21038;SDS011;10678;51.002;4.786;2022-12-07T00:08:35;15.93;;;10.20;;
21038;SDS011;10678;51.002;4.786;2022-12-07T00:11:02;18.33;;;10.00;;
21038;SDS011;10678;51.002;4.786;2022-12-07T00:13:32;18.37;;;11.10;;
21038;SDS011;10678;51.002;4.786;2022-12-07T00:16:17;18.67;;;9.77;;
21038;SDS011;10678;51.002;4.786;2022-12-07T00:18:44;18.17;;;10.20;;
21038;SDS011;10678;51.002;4.786;2022-12-07T00:23:38;17.77;;;10.80;;
21038;SDS011;10678;51.002;4.786;2022-12-07T00:26:06;19.13;;;11.00;;
21038;SDS011;10678;51.002;4.786;2022-12-07T00:28:34;17.90;;;11.47;;
21038;SDS011;10678;51.002;4.786;2022-12-07T00:33:30;18.33;;;10.60;;
21038;SDS011;10678;51.002;4.786;2022-12-07T00:35:56;17.53;;;11.17;;
21038;SDS011;10678;51.002;4.786;2022-12-07T00:38:22;20.60;;;12.37;;
21038;SDS011;10678;51.002;4.786;2022-12-07T00:41:22;21.47;;;11.63;;
21038;SDS011;10678;51.002;4.786;2022-12-07T00:43:42;21.40;;;10.00;;
21038;SDS011;10678;51.002;4.786;2022-12-07T00:46:09;25.30;;;12.73;;
21038;SDS011;10678;51.002;4.786;2022-12-07T00:48:36;19.37;;;11.37;;
21038;SDS011;10678;51.002;4.786;2022-12-07T00:51:02;20.90;;;10.67;;
21038;SDS011;10678;51.002;4.786;2022-12-07T00:53:28;23.20;;;11.30;;
21038;SDS011;10678;51.002;4.786;2022-12-07T00:55:54;19.90;;;11.13;;
21038;SDS011;10678;51.002;4.786;2022-12-07T00:58:23;22.50;;;11.33;;
21038;SDS011;10678;51.002;4.786;2022-12-07T01:00:49;17.23;;;11.00;;
21038;SDS011;10678;51.002;4.786;2022-12-07T01:03:15;17.97;;;10.33;;
21038;SDS011;10678;51.002;4.786;2022-12-07T01:05:48;20.97;;;10.80;;
21038;SDS011;10678;51.002;4.786;2022-12-07T01:08:18;20.93;;;11.30;;
21038;SDS011;10678;51.002;4.786;2022-12-07T01:10:44;19.90;;;11.53;;
21038;SDS011;10678;51.002;4.786;2022-12-07T01:13:10;17.73;;;10.97;;
21038;SDS011;10678;51.002;4.786;2022-12-07T01:15:39;21.37;;;11.37;;
21038;SDS011;10678;51.002;4.786;2022-12-07T01:18:08;21.63;;;11.60;;
21038;SDS011;10678;51.002;4.786;2022-12-07T01:20:34;19.60;;;11.90;;
21038;SDS011;10678;51.002;4.786;2022-12-07T01:22:59;23.30;;;11.77;;
21038;SDS011;10678;51.002;4.786;2022-12-07T01:25:25;22.63;;;12.67;;
21038;SDS011;10678;51.002;4.786;2022-12-07T01:27:51;21.07;;;11.37;;
21038;SDS011;10678;51.002;4.786;2022-12-07T01:30:16;22.53;;;12.03;;
21038;SDS011;10678;51.002;4.786;2022-12-07T01:32:42;18.57;;;11.40;;
21038;SDS011;10678;51.002;4.786;2022-12-07T01:35:08;20.27;;;11.17;;
21038;SDS011;10678;51.002;4.786;2022-12-07T01:37:37;21.13;;;11.77;;
21038;SDS011;10678;51.002;4.786;2022-12-07T01:40:07;20.63;;;11.80;;
21038;SDS011;10678;51.002;4.786;2022-12-07T01:42:33;22.90;;;13.10;;
21038;SDS011;10678;51.002;4.786;2022-12-07T01:47:44;18.20;;;11.93;;
21038;SDS011;10678;51.002;4.786;2022-12-07T01:50:18;19.67;;;11.53;;
21038;SDS011;10678;51.002;4.786;2022-12-07T01:52:45;20.60;;;13.00;;
21038;SDS011;10678;51.002;4.786;2022-12-07T01:55:15;22.03;;;12.40;;
21038;SDS011;10678;51.002;4.786;2022-12-07T01:57:43;19.43;;;12.23;;
21038;SDS011;10678;51.002;4.786;2022-12-07T02:00:13;20.83;;;12.60;;
21038;SDS011;10678;51.002;4.786;2022-12-07T02:03:23;18.87;;;11.43;;
21038;SDS011;10678;51.002;4.786;2022-12-07T02:05:34;18.70;;;11.83;;
21038;SDS011;10678;51.002;4.786;2022-12-07T02:08:01;20.67;;;11.73;;
21038;SDS011;10678;51.002;4.786;2022-12-07T02:10:29;19.27;;;11.67;;
21038;SDS011;10678;51.002;4.786;2022-12-07T02:13:01;18.53;;;11.37;;
21038;SDS011;10678;51.002;4.786;2022-12-07T02:32:38;21.30;;;12.37;;
21038;SDS011;10678;51.002;4.786;2022-12-07T02:40:11;19.47;;;11.50;;
21038;SDS011;10678;51.002;4.786;2022-12-07T02:45:49;20.93;;;11.60;;
21038;SDS011;10678;51.002;4.786;2022-12-07T02:48:17;19.03;;;12.10;;
21038;SDS011;10678;51.002;4.786;2022-12-07T02:50:47;20.53;;;10.90;;
21038;SDS011;10678;51.002;4.786;2022-12-07T02:56:03;18.90;;;11.43;;
21038;SDS011;10678;51.002;4.786;2022-12-07T03:10:28;19.40;;;11.10;;
21038;SDS011;10678;51.002;4.786;2022-12-07T03:13:14;32.57;;;13.73;;
21038;SDS011;10678;51.002;4.786;2022-12-07T03:15:54;27.90;;;14.47;;
21038;SDS011;10678;51.002;4.786;2022-12-07T03:18:21;26.37;;;13.90;;
21038;SDS011;10678;51.002;4.786;2022-12-07T03:20:49;22.57;;;11.93;;
21038;SDS011;10678;51.002;4.786;2022-12-07T03:23:18;21.67;;;12.50;;
21038;SDS011;10678;51.002;4.786;2022-12-07T03:25:46;18.13;;;11.27;;
21038;SDS011;10678;51.002;4.786;2022-12-07T03:28:15;24.43;;;12.40;;
21038;SDS011;10678;51.002;4.786;2022-12-07T03:33:19;19.93;;;11.37;;
21038;SDS011;10678;51.002;4.786;2022-12-07T03:35:51;22.07;;;12.00;;
21038;SDS011;10678;51.002;4.786;2022-12-07T03:38:45;20.83;;;12.07;;
21038;SDS011;10678;51.002;4.786;2022-12-07T03:41:19;20.60;;;12.30;;
21038;SDS011;10678;51.002;4.786;2022-12-07T03:43:49;24.63;;;12.53;;
21038;SDS011;10678;51.002;4.786;2022-12-07T03:46:20;24.87;;;12.90;;
21038;SDS011;10678;51.002;4.786;2022-12-07T03:48:54;22.17;;;10.83;;
21038;SDS011;10678;51.002;4.786;2022-12-07T03:56:48;23.00;;;11.60;;
21038;SDS011;10678;51.002;4.786;2022-12-07T03:59:15;20.07;;;12.03;;
21038;SDS011;10678;51.002;4.786;2022-12-07T04:01:45;20.13;;;10.83;;
21038;SDS011;10678;51.002;4.786;2022-12-07T04:04:17;18.63;;;10.63;;
21038;SDS011;10678;51.002;4.786;2022-12-07T04:06:43;18.70;;;10.90;;
21038;SDS011;10678;51.002;4.786;2022-12-07T04:09:09;22.37;;;11.93;;
21038;SDS011;10678;51.002;4.786;2022-12-07T04:11:34;19.43;;;10.13;;
21038;SDS011;10678;51.002;4.786;2022-12-07T04:14:00;18.53;;;11.17;;
21038;SDS011;10678;51.002;4.786;2022-12-07T04:16:44;18.00;;;10.90;;
21038;SDS011;10678;51.002;4.786;2022-12-07T04:19:18;20.47;;;11.13;;
21038;SDS011;10678;51.002;4.786;2022-12-07T04:21:46;19.43;;;10.07;;
21038;SDS011;10678;51.002;4.786;2022-12-07T04:24:12;18.40;;;9.87;;
21038;SDS011;10678;51.002;4.786;2022-12-07T04:26:39;19.57;;;9.53;;
21038;SDS011;10678;51.002;4.786;2022-12-07T04:29:06;15.43;;;9.43;;
21038;SDS011;10678;51.002;4.786;2022-12-07T04:31:32;17.47;;;9.90;;
21038;SDS011;10678;51.002;4.786;2022-12-07T04:33:58;20.53;;;10.83;;
21038;SDS011;10678;51.002;4.786;2022-12-07T04:36:23;28.10;;;12.07;;
21038;SDS011;10678;51.002;4.786;2022-12-07T04:38:49;19.03;;;10.77;;
21038;SDS011;10678;51.002;4.786;2022-12-07T04:41:14;24.53;;;12.03;;
21038;SDS011;10678;51.002;4.786;2022-12-07T04:43:40;19.43;;;11.63;;
21038;SDS011;10678;51.002;4.786;2022-12-07T04:46:05;20.13;;;11.07;;
21038;SDS011;10678;51.002;4.786;2022-12-07T04:48:31;19.33;;;11.47;;
21038;SDS011;10678;51.002;4.786;2022-12-07T04:50:57;18.47;;;10.53;;
21038;SDS011;10678;51.002;4.786;2022-12-07T04:53:23;18.70;;;10.77;;
21038;SDS011;10678;51.002;4.786;2022-12-07T04:55:48;17.57;;;10.70;;
21038;SDS011;10678;51.002;4.786;2022-12-07T04:58:14;20.70;;;11.37;;
21038;SDS011;10678;51.002;4.786;2022-12-07T05:00:40;19.47;;;10.90;;
21038;SDS011;10678;51.002;4.786;2022-12-07T05:03:05;17.60;;;10.43;;
21038;SDS011;10678;51.002;4.786;2022-12-07T05:05:31;19.07;;;10.27;;
21038;SDS011;10678;51.002;4.786;2022-12-07T05:07:57;17.13;;;10.80;;
21038;SDS011;10678;51.002;4.786;2022-12-07T05:10:22;18.57;;;11.17;;
21038;SDS011;10678;51.002;4.786;2022-12-07T05:12:48;18.93;;;10.97;;
21038;SDS011;10678;51.002;4.786;2022-12-07T05:15:14;25.03;;;10.93;;
21038;SDS011;10678;51.002;4.786;2022-12-07T05:17:40;24.43;;;10.47;;
21038;SDS011;10678;51.002;4.786;2022-12-07T05:20:06;25.80;;;11.43;;
21038;SDS011;10678;51.002;4.786;2022-12-07T05:22:32;22.97;;;11.80;;
21038;SDS011;10678;51.002;4.786;2022-12-07T05:24:58;19.77;;;12.47;;
21038;SDS011;10678;51.002;4.786;2022-12-07T05:27:24;19.43;;;11.90;;
21038;SDS011;10678;51.002;4.786;2022-12-07T05:29:50;21.73;;;12.07;;
21038;SDS011;10678;51.002;4.786;2022-12-07T05:32:15;17.17;;;11.30;;
21038;SDS011;10678;51.002;4.786;2022-12-07T05:34:41;21.40;;;12.00;;
21038;SDS011;10678;51.002;4.786;2022-12-07T05:37:07;22.10;;;11.03;;
21038;SDS011;10678;51.002;4.786;2022-12-07T05:39:32;20.87;;;11.87;;
21038;SDS011;10678;51.002;4.786;2022-12-07T05:41:58;18.27;;;11.07;;
21038;SDS011;10678;51.002;4.786;2022-12-07T05:44:39;21.40;;;11.43;;
21038;SDS011;10678;51.002;4.786;2022-12-07T05:47:05;25.67;;;11.60;;
21038;SDS011;10678;51.002;4.786;2022-12-07T05:49:31;17.90;;;10.77;;
21038;SDS011;10678;51.002;4.786;2022-12-07T05:51:57;17.67;;;10.70;;
21038;SDS011;10678;51.002;4.786;2022-12-07T05:54:23;24.13;;;10.90;;
21038;SDS011;10678;51.002;4.786;2022-12-07T05:56:48;19.67;;;11.03;;
21038;SDS011;10678;51.002;4.786;2022-12-07T05:59:14;27.07;;;13.37;;
21038;SDS011;10678;51.002;4.786;2022-12-07T06:01:56;23.40;;;12.83;;
21038;SDS011;10678;51.002;4.786;2022-12-07T06:04:27;30.63;;;12.40;;
21038;SDS011;10678;51.002;4.786;2022-12-07T06:06:55;27.47;;;12.93;;
21038;SDS011;10678;51.002;4.786;2022-12-07T06:09:21;25.33;;;12.37;;
21038;SDS011;10678;51.002;4.786;2022-12-07T06:11:48;20.53;;;12.67;;
21038;SDS011;10678;51.002;4.786;2022-12-07T06:14:32;25.77;;;13.50;;
21038;SDS011;10678;51.002;4.786;2022-12-07T06:16:58;22.80;;;13.43;;
21038;SDS011;10678;51.002;4.786;2022-12-07T06:19:24;23.70;;;13.10;;
21038;SDS011;10678;51.002;4.786;2022-12-07T06:21:50;22.27;;;11.70;;
21038;SDS011;10678;51.002;4.786;2022-12-07T06:24:16;21.73;;;13.43;;
21038;SDS011;10678;51.002;4.786;2022-12-07T06:26:42;24.63;;;12.20;;
21038;SDS011;10678;51.002;4.786;2022-12-07T06:29:08;20.67;;;11.40;;
21038;SDS011;10678;51.002;4.786;2022-12-07T06:31:35;25.70;;;11.83;;
21038;SDS011;10678;51.002;4.786;2022-12-07T06:34:02;22.23;;;11.73;;
21038;SDS011;10678;51.002;4.786;2022-12-07T06:36:30;26.23;;;11.83;;
21038;SDS011;10678;51.002;4.786;2022-12-07T06:38:56;21.13;;;11.53;;
21038;SDS011;10678;51.002;4.786;2022-12-07T06:41:22;27.33;;;12.70;;
21038;SDS011;10678;51.002;4.786;2022-12-07T06:43:48;19.57;;;10.53;;
21038;SDS011;10678;51.002;4.786;2022-12-07T06:46:14;20.50;;;11.23;;
21038;SDS011;10678;51.002;4.786;2022-12-07T06:48:40;18.90;;;10.93;;
21038;SDS011;10678;51.002;4.786;2022-12-07T06:51:07;18.17;;;10.60;;
21038;SDS011;10678;51.002;4.786;2022-12-07T06:53:33;22.63;;;10.60;;
21038;SDS011;10678;51.002;4.786;2022-12-07T06:55:58;20.87;;;11.33;;
21038;SDS011;10678;51.002;4.786;2022-12-07T06:58:24;18.97;;;10.33;;
21038;SDS011;10678;51.002;4.786;2022-12-07T07:00:50;21.43;;;10.90;;
21038;SDS011;10678;51.002;4.786;2022-12-07T07:03:16;19.47;;;10.57;;
21038;SDS011;10678;51.002;4.786;2022-12-07T07:05:42;17.03;;;10.67;;
21038;SDS011;10678;51.002;4.786;2022-12-07T07:08:09;18.60;;;10.43;;
21038;SDS011;10678;51.002;4.786;2022-12-07T07:10:35;19.63;;;11.17;;
21038;SDS011;10678;51.002;4.786;2022-12-07T07:13:01;17.20;;;9.77;;
21038;SDS011;10678;51.002;4.786;2022-12-07T07:15:27;16.57;;;9.57;;
21038;SDS011;10678;51.002;4.786;2022-12-07T07:17:53;19.47;;;10.27;;
21038;SDS011;10678;51.002;4.786;2022-12-07T07:20:19;21.80;;;9.20;;
21038;SDS011;10678;51.002;4.786;2022-12-07T07:22:44;18.50;;;9.57;;
21038;SDS011;10678;51.002;4.786;2022-12-07T07:25:10;19.83;;;9.80;;
21038;SDS011;10678;51.002;4.786;2022-12-07T07:27:36;17.27;;;9.20;;
21038;SDS011;10678;51.002;4.786;2022-12-07T07:30:02;17.60;;;9.37;;
21038;SDS011;10678;51.002;4.786;2022-12-07T07:32:28;19.27;;;9.67;;
21038;SDS011;10678;51.002;4.786;2022-12-07T07:34:53;16.43;;;8.83;;
21038;SDS011;10678;51.002;4.786;2022-12-07T07:37:19;18.10;;;8.57;;
21038;SDS011;10678;51.002;4.786;2022-12-07T07:39:44;17.00;;;8.63;;
21038;SDS011;10678;51.002;4.786;2022-12-07T07:42:10;18.30;;;8.90;;
21038;SDS011;10678;51.002;4.786;2022-12-07T07:44:36;15.03;;;7.70;;
21038;SDS011;10678;51.002;4.786;2022-12-07T07:47:02;17.73;;;9.10;;
21038;SDS011;10678;51.002;4.786;2022-12-07T07:49:28;17.57;;;8.70;;
21038;SDS011;10678;51.002;4.786;2022-12-07T07:51:53;17.27;;;8.73;;
21038;SDS011;10678;51.002;4.786;2022-12-07T07:54:19;20.17;;;8.67;;
21038;SDS011;10678;51.002;4.786;2022-12-07T07:56:44;14.00;;;7.90;;
21038;SDS011;10678;51.002;4.786;2022-12-07T07:59:10;14.27;;;7.90;;
21038;SDS011;10678;51.002;4.786;2022-12-07T08:01:35;14.77;;;8.43;;
21038;SDS011;10678;51.002;4.786;2022-12-07T08:04:01;14.80;;;7.93;;
21038;SDS011;10678;51.002;4.786;2022-12-07T08:06:27;15.03;;;8.20;;
21038;SDS011;10678;51.002;4.786;2022-12-07T08:08:52;14.80;;;8.83;;
21038;SDS011;10678;51.002;4.786;2022-12-07T08:11:18;20.13;;;9.27;;
21038;SDS011;10678;51.002;4.786;2022-12-07T08:13:47;18.37;;;9.20;;
21038;SDS011;10678;51.002;4.786;2022-12-07T08:16:12;16.60;;;9.47;;
21038;SDS011;10678;51.002;4.786;2022-12-07T08:18:39;21.33;;;9.70;;
21038;SDS011;10678;51.002;4.786;2022-12-07T08:21:06;21.77;;;9.63;;
21038;SDS011;10678;51.002;4.786;2022-12-07T08:23:34;17.07;;;9.83;;
21038;SDS011;10678;51.002;4.786;2022-12-07T08:26:00;19.07;;;10.20;;
21038;SDS011;10678;51.002;4.786;2022-12-07T08:28:28;25.47;;;11.33;;
21038;SDS011;10678;51.002;4.786;2022-12-07T08:31:05;20.13;;;11.23;;
21038;SDS011;10678;51.002;4.786;2022-12-07T08:33:33;16.23;;;9.33;;
21038;SDS011;10678;51.002;4.786;2022-12-07T08:36:00;19.93;;;10.07;;
21038;SDS011;10678;51.002;4.786;2022-12-07T08:38:27;14.70;;;8.80;;
21038;SDS011;10678;51.002;4.786;2022-12-07T08:40:53;19.37;;;8.83;;
21038;SDS011;10678;51.002;4.786;2022-12-07T08:43:22;19.07;;;9.10;;
21038;SDS011;10678;51.002;4.786;2022-12-07T08:45:49;16.57;;;8.93;;
21038;SDS011;10678;51.002;4.786;2022-12-07T08:48:31;16.77;;;8.17;;
21038;SDS011;10678;51.002;4.786;2022-12-07T08:50:58;14.40;;;7.80;;
21038;SDS011;10678;51.002;4.786;2022-12-07T08:53:23;12.80;;;7.60;;
21038;SDS011;10678;51.002;4.786;2022-12-07T08:55:49;17.73;;;8.13;;
21038;SDS011;10678;51.002;4.786;2022-12-07T08:58:15;16.97;;;8.07;;
21038;SDS011;10678;51.002;4.786;2022-12-07T09:00:41;13.47;;;7.97;;
21038;SDS011;10678;51.002;4.786;2022-12-07T09:03:06;18.17;;;8.37;;
21038;SDS011;10678;51.002;4.786;2022-12-07T09:05:32;17.03;;;9.00;;
21038;SDS011;10678;51.002;4.786;2022-12-07T09:07:59;16.80;;;8.40;;
21038;SDS011;10678;51.002;4.786;2022-12-07T09:10:26;18.33;;;7.90;;
21038;SDS011;10678;51.002;4.786;2022-12-07T09:12:52;14.27;;;7.50;;
21038;SDS011;10678;51.002;4.786;2022-12-07T09:15:18;15.53;;;7.43;;
21038;SDS011;10678;51.002;4.786;2022-12-07T09:17:44;19.57;;;7.70;;
21038;SDS011;10678;51.002;4.786;2022-12-07T09:20:10;14.50;;;7.67;;
21038;SDS011;10678;51.002;4.786;2022-12-07T09:22:36;13.47;;;7.13;;
21038;SDS011;10678;51.002;4.786;2022-12-07T09:25:02;15.60;;;6.93;;
21038;SDS011;10678;51.002;4.786;2022-12-07T09:27:28;12.23;;;6.47;;
21038;SDS011;10678;51.002;4.786;2022-12-07T09:29:54;13.27;;;6.60;;
21038;SDS011;10678;51.002;4.786;2022-12-07T09:32:20;13.27;;;6.60;;
21038;SDS011;10678;51.002;4.786;2022-12-07T09:34:46;11.50;;;6.67;;
21038;SDS011;10678;51.002;4.786;2022-12-07T09:37:11;13.47;;;6.43;;
21038;SDS011;10678;51.002;4.786;2022-12-07T09:39:37;12.03;;;6.20;;
21038;SDS011;10678;51.002;4.786;2022-12-07T09:42:04;14.47;;;7.13;;
21038;SDS011;10678;51.002;4.786;2022-12-07T09:44:32;12.20;;;6.33;;
21038;SDS011;10678;51.002;4.786;2022-12-07T09:46:58;17.43;;;6.40;;
21038;SDS011;10678;51.002;4.786;2022-12-07T09:49:25;12.80;;;6.10;;
21038;SDS011;10678;51.002;4.786;2022-12-07T09:54:34;14.47;;;6.20;;
21038;SDS011;10678;51.002;4.786;2022-12-07T09:57:03;13.27;;;6.03;;
21038;SDS011;10678;51.002;4.786;2022-12-07T09:59:28;12.10;;;6.30;;
21038;SDS011;10678;51.002;4.786;2022-12-07T10:01:54;13.63;;;5.60;;
21038;SDS011;10678;51.002;4.786;2022-12-07T10:04:21;10.97;;;5.30;;
21038;SDS011;10678;51.002;4.786;2022-12-07T10:06:49;9.87;;;5.00;;
21038;SDS011;10678;51.002;4.786;2022-12-07T10:09:16;15.27;;;6.00;;
21038;SDS011;10678;51.002;4.786;2022-12-07T10:14:33;13.18;;;5.47;;
21038;SDS011;10678;51.002;4.786;2022-12-07T10:16:59;16.97;;;5.50;;
21038;SDS011;10678;51.002;4.786;2022-12-07T10:19:27;10.90;;;4.95;;
21038;SDS011;10678;51.002;4.786;2022-12-07T10:24:34;8.63;;;4.50;;
21038;SDS011;10678;51.002;4.786;2022-12-07T10:26:59;10.93;;;4.80;;
21038;SDS011;10678;51.002;4.786;2022-12-07T10:29:36;11.45;;;4.40;;
21038;SDS011;10678;51.002;4.786;2022-12-07T10:32:08;11.43;;;4.40;;
21038;SDS011;10678;51.002;4.786;2022-12-07T10:34:51;11.40;;;4.05;;
21038;SDS011;10678;51.002;4.786;2022-12-07T10:37:39;10.85;;;4.03;;
21038;SDS011;10678;51.002;4.786;2022-12-07T10:40:10;10.93;;;4.13;;
21038;SDS011;10678;51.002;4.786;2022-12-07T10:48:45;8.30;;;3.85;;
21038;SDS011;10678;51.002;4.786;2022-12-07T10:51:19;8.50;;;3.60;;
21038;SDS011;10678;51.002;4.786;2022-12-07T10:57:05;13.15;;;3.53;;
21038;SDS011;10678;51.002;4.786;2022-12-07T11:04:57;11.75;;;4.15;;
21038;SDS011;10678;51.002;4.786;2022-12-07T11:07:42;7.40;;;3.70;;
21038;SDS011;10678;51.002;4.786;2022-12-07T11:10:28;9.55;;;3.60;;
21038;SDS011;10678;51.002;4.786;2022-12-07T11:18:41;7.28;;;3.35;;
21038;SDS011;10678;51.002;4.786;2022-12-07T11:21:38;9.40;;;3.10;;
21038;SDS011;10678;51.002;4.786;2022-12-07T11:24:20;8.50;;;3.30;;
21038;SDS011;10678;51.002;4.786;2022-12-07T11:32:53;6.78;;;3.40;;
21038;SDS011;10678;51.002;4.786;2022-12-07T11:38:45;8.77;;;3.92;;
21038;SDS011;10678;51.002;4.786;2022-12-07T11:41:28;9.63;;;3.40;;
21038;SDS011;10678;51.002;4.786;2022-12-07T11:46:45;8.10;;;3.28;;
21038;SDS011;10678;51.002;4.786;2022-12-07T11:55:14;11.90;;;4.13;;
21038;SDS011;10678;51.002;4.786;2022-12-07T11:58:04;9.57;;;3.58;;
21038;SDS011;10678;51.002;4.786;2022-12-07T12:00:36;10.95;;;4.22;;
21038;SDS011;10678;51.002;4.786;2022-12-07T12:03:08;9.75;;;3.65;;
21038;SDS011;10678;51.002;4.786;2022-12-07T12:05:38;9.60;;;3.70;;
21038;SDS011;10678;51.002;4.786;2022-12-07T12:08:13;10.05;;;3.45;;
21038;SDS011;10678;51.002;4.786;2022-12-07T12:13:32;14.90;;;3.72;;
21038;SDS011;10678;51.002;4.786;2022-12-07T12:21:40;8.75;;;2.63;;
21038;SDS011;10678;51.002;4.786;2022-12-07T12:24:17;8.73;;;3.42;;
21038;SDS011;10678;51.002;4.786;2022-12-07T12:26:51;12.88;;;3.13;;
21038;SDS011;10678;51.002;4.786;2022-12-07T12:29:26;8.40;;;3.50;;
21038;SDS011;10678;51.002;4.786;2022-12-07T12:34:39;14.85;;;3.50;;
21038;SDS011;10678;51.002;4.786;2022-12-07T12:48:02;8.85;;;3.60;;
21038;SDS011;10678;51.002;4.786;2022-12-07T12:50:47;9.98;;;3.83;;
21038;SDS011;10678;51.002;4.786;2022-12-07T12:53:25;8.27;;;3.40;;
21038;SDS011;10678;51.002;4.786;2022-12-07T12:56:05;8.20;;;2.85;;
21038;SDS011;10678;51.002;4.786;2022-12-07T13:02:20;12.40;;;3.47;;
21038;SDS011;10678;51.002;4.786;2022-12-07T13:07:49;8.43;;;3.05;;
21038;SDS011;10678;51.002;4.786;2022-12-07T13:10:40;8.00;;;3.13;;
21038;SDS011;10678;51.002;4.786;2022-12-07T13:15:44;6.88;;;3.05;;
21038;SDS011;10678;51.002;4.786;2022-12-07T13:23:31;8.23;;;2.88;;
21038;SDS011;10678;51.002;4.786;2022-12-07T13:28:54;7.30;;;3.15;;
21038;SDS011;10678;51.002;4.786;2022-12-07T13:34:29;10.27;;;3.60;;
21038;SDS011;10678;51.002;4.786;2022-12-07T13:36:55;9.73;;;2.90;;
21038;SDS011;10678;51.002;4.786;2022-12-07T13:39:22;7.20;;;3.28;;
21038;SDS011;10678;51.002;4.786;2022-12-07T13:41:57;6.45;;;2.70;;
21038;SDS011;10678;51.002;4.786;2022-12-07T13:44:25;7.90;;;2.90;;
21038;SDS011;10678;51.002;4.786;2022-12-07T13:49:50;10.90;;;3.00;;
21038;SDS011;10678;51.002;4.786;2022-12-07T13:52:18;10.27;;;3.07;;
21038;SDS011;10678;51.002;4.786;2022-12-07T13:54:49;6.03;;;2.33;;
21038;SDS011;10678;51.002;4.786;2022-12-07T13:57:20;9.93;;;3.00;;
21038;SDS011;10678;51.002;4.786;2022-12-07T13:59:47;9.73;;;3.00;;
21038;SDS011;10678;51.002;4.786;2022-12-07T14:02:20;6.32;;;2.80;;
21038;SDS011;10678;51.002;4.786;2022-12-07T14:04:49;9.40;;;3.15;;
21038;SDS011;10678;51.002;4.786;2022-12-07T14:07:26;10.47;;;3.23;;
21038;SDS011;10678;51.002;4.786;2022-12-07T14:09:54;6.07;;;2.90;;
21038;SDS011;10678;51.002;4.786;2022-12-07T14:12:24;6.75;;;3.00;;
21038;SDS011;10678;51.002;4.786;2022-12-07T14:14:51;7.28;;;3.40;;
21038;SDS011;10678;51.002;4.786;2022-12-07T14:17:18;7.63;;;3.27;;
21038;SDS011;10678;51.002;4.786;2022-12-07T14:19:48;6.93;;;3.50;;
21038;SDS011;10678;51.002;4.786;2022-12-07T14:22:29;8.50;;;4.32;;
21038;SDS011;10678;51.002;4.786;2022-12-07T14:24:59;9.00;;;4.20;;
21038;SDS011;10678;51.002;4.786;2022-12-07T14:27:33;9.27;;;3.60;;
21038;SDS011;10678;51.002;4.786;2022-12-07T14:30:00;5.43;;;2.50;;
21038;SDS011;10678;51.002;4.786;2022-12-07T14:32:28;5.70;;;2.53;;
21038;SDS011;10678;51.002;4.786;2022-12-07T14:34:59;5.93;;;3.10;;
21038;SDS011;10678;51.002;4.786;2022-12-07T14:37:35;5.00;;;2.60;;
21038;SDS011;10678;51.002;4.786;2022-12-07T14:40:02;6.23;;;2.50;;
21038;SDS011;10678;51.002;4.786;2022-12-07T14:42:28;7.47;;;3.00;;
21038;SDS011;10678;51.002;4.786;2022-12-07T14:44:56;22.67;;;13.90;;
21038;SDS011;10678;51.002;4.786;2022-12-07T14:47:22;12.10;;;6.50;;
21038;SDS011;10678;51.002;4.786;2022-12-07T14:49:49;10.70;;;5.97;;
21038;SDS011;10678;51.002;4.786;2022-12-07T14:52:16;7.00;;;3.20;;
21038;SDS011;10678;51.002;4.786;2022-12-07T14:54:45;5.93;;;3.17;;
21038;SDS011;10678;51.002;4.786;2022-12-07T14:57:11;6.57;;;3.50;;
21038;SDS011;10678;51.002;4.786;2022-12-07T14:59:37;7.17;;;3.83;;
21038;SDS011;10678;51.002;4.786;2022-12-07T15:02:03;7.03;;;3.70;;
21038;SDS011;10678;51.002;4.786;2022-12-07T15:04:29;7.40;;;3.43;;
21038;SDS011;10678;51.002;4.786;2022-12-07T15:06:55;9.00;;;4.20;;
21038;SDS011;10678;51.002;4.786;2022-12-07T15:09:22;8.77;;;4.63;;
21038;SDS011;10678;51.002;4.786;2022-12-07T15:11:47;7.90;;;4.50;;
21038;SDS011;10678;51.002;4.786;2022-12-07T15:14:13;12.20;;;5.23;;
21038;SDS011;10678;51.002;4.786;2022-12-07T15:16:40;11.23;;;5.87;;
21038;SDS011;10678;51.002;4.786;2022-12-07T15:19:11;9.70;;;5.57;;
21038;SDS011;10678;51.002;4.786;2022-12-07T15:21:50;8.83;;;4.80;;
21038;SDS011;10678;51.002;4.786;2022-12-07T15:24:16;10.27;;;4.17;;
21038;SDS011;10678;51.002;4.786;2022-12-07T15:26:42;7.50;;;3.57;;
21038;SDS011;10678;51.002;4.786;2022-12-07T15:29:08;9.47;;;3.97;;
21038;SDS011;10678;51.002;4.786;2022-12-07T15:31:35;8.53;;;4.30;;
21038;SDS011;10678;51.002;4.786;2022-12-07T15:34:01;7.27;;;4.50;;
21038;SDS011;10678;51.002;4.786;2022-12-07T15:36:28;9.27;;;5.03;;
21038;SDS011;10678;51.002;4.786;2022-12-07T15:38:55;7.30;;;3.23;;
21038;SDS011;10678;51.002;4.786;2022-12-07T15:41:21;7.13;;;3.20;;
21038;SDS011;10678;51.002;4.786;2022-12-07T15:43:46;7.90;;;3.43;;
21038;SDS011;10678;51.002;4.786;2022-12-07T15:46:31;7.63;;;3.30;;
21038;SDS011;10678;51.002;4.786;2022-12-07T15:48:59;8.57;;;4.10;;
21038;SDS011;10678;51.002;4.786;2022-12-07T15:51:25;7.17;;;3.60;;
21038;SDS011;10678;51.002;4.786;2022-12-07T15:53:51;9.00;;;4.37;;
21038;SDS011;10678;51.002;4.786;2022-12-07T15:56:17;7.27;;;3.70;;
21038;SDS011;10678;51.002;4.786;2022-12-07T15:58:42;7.57;;;3.93;;
21038;SDS011;10678;51.002;4.786;2022-12-07T16:01:11;9.27;;;3.67;;
21038;SDS011;10678;51.002;4.786;2022-12-07T16:03:42;7.47;;;3.67;;
21038;SDS011;10678;51.002;4.786;2022-12-07T16:06:08;8.23;;;3.83;;
21038;SDS011;10678;51.002;4.786;2022-12-07T16:08:34;7.80;;;3.80;;
21038;SDS011;10678;51.002;4.786;2022-12-07T16:11:00;8.30;;;4.20;;
21038;SDS011;10678;51.002;4.786;2022-12-07T16:13:30;7.47;;;4.30;;
21038;SDS011;10678;51.002;4.786;2022-12-07T16:15:56;11.87;;;5.13;;
21038;SDS011;10678;51.002;4.786;2022-12-07T16:18:22;11.53;;;4.60;;
21038;SDS011;10678;51.002;4.786;2022-12-07T16:20:48;11.07;;;5.93;;
21038;SDS011;10678;51.002;4.786;2022-12-07T16:23:14;10.43;;;6.17;;
21038;SDS011;10678;51.002;4.786;2022-12-07T16:25:40;13.03;;;7.40;;
21038;SDS011;10678;51.002;4.786;2022-12-07T16:28:06;14.57;;;7.80;;
21038;SDS011;10678;51.002;4.786;2022-12-07T16:30:32;13.63;;;7.67;;
21038;SDS011;10678;51.002;4.786;2022-12-07T16:32:58;14.23;;;6.90;;
21038;SDS011;10678;51.002;4.786;2022-12-07T16:35:24;15.43;;;7.00;;
21038;SDS011;10678;51.002;4.786;2022-12-07T16:37:50;13.30;;;7.40;;
21038;SDS011;10678;51.002;4.786;2022-12-07T16:40:15;19.67;;;8.23;;
21038;SDS011;10678;51.002;4.786;2022-12-07T16:42:41;15.43;;;7.60;;
21038;SDS011;10678;51.002;4.786;2022-12-07T16:45:07;18.03;;;8.97;;
21038;SDS011;10678;51.002;4.786;2022-12-07T16:47:32;16.43;;;9.23;;
21038;SDS011;10678;51.002;4.786;2022-12-07T16:50:01;19.07;;;9.20;;
21038;SDS011;10678;51.002;4.786;2022-12-07T16:52:27;15.73;;;8.23;;
21038;SDS011;10678;51.002;4.786;2022-12-07T16:54:52;15.63;;;7.50;;
21038;SDS011;10678;51.002;4.786;2022-12-07T16:57:18;11.97;;;6.97;;
21038;SDS011;10678;51.002;4.786;2022-12-07T16:59:44;12.40;;;6.93;;
21038;SDS011;10678;51.002;4.786;2022-12-07T17:02:10;14.50;;;7.20;;
21038;SDS011;10678;51.002;4.786;2022-12-07T17:04:36;16.97;;;7.80;;
21038;SDS011;10678;51.002;4.786;2022-12-07T17:07:04;14.53;;;7.67;;
21038;SDS011;10678;51.002;4.786;2022-12-07T17:09:30;12.63;;;7.57;;